TAF and METAR

Could not understand the following METAR

YPBO 191500Z AUTO 36008KT 9999 // SCT094 SCT125 31/17 Q1011
No TAF available for Paraburdoo Airport
Paraburdoo Airport in Australia at 1292m

Latest 5 airports